首页
METAR-TAF:

METAR-TAF

机场 :

马丁斯堡, 西維吉尼亞州, 美国

纬度: 39-24-07N, 经度: 077-59-04W, 海拔: 170米

当前天气观测

该预报发布于1小时和0分钟前的04:53 UTC
风速10节,风向西
温度 1°C
湿度 59%
气压 1018 hPa
能見度: 16.1公里
散云层高于7000英尺

METAR: KMRB 190453Z AUTO 27010KT 10SM SCT070 01/M06 A3005 RMK AO2 SLP179 T00111061 400561022

时间: 00:53 (05:53 UTC)

预报

该预报发布于30分钟前的05:23 UTC
预报有效从19日的 06点(UTC)到 20日的 06点(UTC)
风速6节,风向西转西南
能見度: 10公里
多云层高于11000英尺
从 19日的 1300点(UTC)
风速5节,风向西南
能見度: 10公里
散云层高于9000英尺
从 19日的 1700点(UTC)
风速12节,风向西,有时为20节阵风
能見度: 10公里
散云层高于15000英尺
从 20日的 0000点(UTC)
风速8节,风向西转西南
能見度: 10公里
少量云层高于25000英尺

TAF: KMRB 190523Z 1906/2006 25006KT P6SM BKN110 FM191300 22005KT P6SM SCT090 FM191700 27012G20KT P6SM SCT150 FM200000 24008KT P6SM FEW250

超过4000个机场的气象观测和天气预报(METAR&TAF报告)。

可查询的气象台以黄色和红色小点在地图上表示。

将鼠标移到小点上方,可查看气象台名称。

然后点击查看天气观测和预报。

如需切换地图:点击带黑十字的绿色按钮放大地图;点击带横线的绿色按钮缩小地图;或者点击绿色箭头查看邻近地区的地图。


METAR-TAF: